Time;durP1;ratioP1;P1;durP2;ratioP2;P2;SDS_P1;SDS_P2;PMS_P1;PMS_P2;Temp;Humidity;BMP_temperature;BMP_pressure;BME280_temperature;BME280_humidity;BME280_pressure;Samples;Min_cycle;Max_cycle;Signal;HPM_P1;HPM_P2
2021/06/26 00:00:45;;;;;;;6.30;2.90;;;;;;;-144.99;56.67;52201.47;5071607;28;20216;-62
2021/06/26 00:03:12;;;;;;;5.67;3.07;;;;;;;-144.99;56.57;52199.44;5071693;28;20316;-61
2021/06/26 00:05:38;;;;;;;5.87;4.03;;;;;;;-144.99;56.59;52181.09;5071140;28;20213;-62
2021/06/26 00:08:05;;;;;;;4.30;2.80;;;;;;;-144.99;56.96;52236.13;5071922;28;20209;-61
2021/06/26 00:10:33;;;;;;;8.73;3.93;;;;;;;-144.99;56.84;52248.34;5071058;28;20220;-62
2021/06/26 00:13:00;;;;;;;4.77;3.97;;;;;;;-144.99;56.88;52170.91;5071698;28;20327;-62
2021/06/26 00:15:26;;;;;;;8.83;6.00;;;;;;;-144.99;56.94;52203.50;5071355;28;20197;-62
2021/06/26 00:17:53;;;;;;;6.40;4.07;;;;;;;-144.99;57.01;52207.59;5071270;28;20209;-61
2021/06/26 00:20:20;;;;;;;5.90;3.90;;;;;;;-144.99;56.88;52189.25;5070468;28;20392;-61
2021/06/26 00:22:47;;;;;;;5.80;3.40;;;;;;;-144.99;57.04;52207.59;5093523;22;20684;-58
2021/06/26 00:25:14;;;;;;;5.40;3.13;;;;;;;-144.99;57.06;52179.06;5091116;28;20204;-59
2021/06/26 00:27:42;;;;;;;3.63;3.13;;;;;;;-144.99;57.03;52179.06;5091552;28;20665;-58
2021/06/26 00:30:09;;;;;;;3.40;2.67;;;;;;;-144.99;57.48;52195.34;5086898;28;20236;-58
2021/06/26 00:32:36;;;;;;;6.40;4.07;;;;;;;-144.99;57.37;52211.66;5071663;28;20208;-58
2021/06/26 00:35:03;;;;;;;4.33;3.77;;;;;;;-144.99;57.39;52199.44;5072166;28;20209;-58
2021/06/26 00:37:30;;;;;;;5.47;3.40;;;;;;;-144.99;57.58;52225.94;5072228;28;20209;-58
2021/06/26 00:39:56;;;;;;;5.90;3.77;;;;;;;-144.99;57.60;52215.75;5071403;28;20237;-58
2021/06/26 00:42:23;;;;;;;4.67;3.77;;;;;;;-144.99;57.92;52227.97;5071237;28;20228;-59
2021/06/26 00:44:51;;;;;;;4.67;2.97;;;;;;;-144.99;58.07;52191.28;5078003;28;20212;-58
2021/06/26 00:47:17;;;;;;;5.80;3.50;;;;;;;-144.99;58.13;52205.53;5090967;28;20584;-59
2021/06/26 00:49:44;;;;;;;4.40;3.57;;;;;;;-144.99;58.17;52174.97;5090871;28;20239;-58
2021/06/26 00:52:10;;;;;;;5.47;3.90;;;;;;;-144.99;58.52;52227.97;5090375;28;20204;-58
2021/06/26 00:54:37;;;;;;;5.80;3.73;;;;;;;-144.99;58.54;52236.13;5086396;28;20684;-59
2021/06/26 00:57:05;;;;;;;6.10;3.53;;;;;;;-144.99;58.67;52215.75;5090197;28;20201;-58
2021/06/26 00:59:33;;;;;;;5.97;4.37;;;;;;;-144.99;59.03;52215.75;5070814;28;20249;-58
2021/06/26 01:02:03;;;;;;;6.70;5.17;;;;;;;-144.99;59.26;52203.50;5070334;28;20586;-59
2021/06/26 01:04:29;;;;;;;4.83;3.93;;;;;;;-144.99;59.24;52191.28;5070330;28;20216;-59
2021/06/26 01:06:56;;;;;;;6.07;4.53;;;;;;;-144.99;59.28;52221.84;5070140;28;20714;-59
2021/06/26 01:09:23;;;;;;;5.70;4.30;;;;;;;-144.99;59.48;52232.03;5070367;28;20236;-59
2021/06/26 01:11:49;;;;;;;6.23;4.57;;;;;;;-144.99;59.37;52223.88;5070681;28;20598;-59
2021/06/26 01:14:16;;;;;;;7.03;4.50;;;;;;;-144.99;59.89;52187.19;5084481;28;20212;-59
2021/06/26 01:16:42;;;;;;;6.90;4.30;;;;;;;-144.99;59.88;52199.44;5079879;28;20689;-59
2021/06/26 01:19:11;;;;;;;4.87;3.97;;;;;;;-144.99;60.17;52223.88;5070437;28;20264;-59
2021/06/26 01:21:38;;;;;;;4.83;3.80;;;;;;;-144.99;60.05;52227.97;5084914;28;20207;-58
2021/06/26 01:24:07;;;;;;;6.67;4.67;;;;;;;-144.99;60.05;52199.44;5077194;28;20231;-58
2021/06/26 01:26:35;;;;;;;5.00;3.73;;;;;;;-144.99;60.05;52209.63;5070966;28;20666;-59
2021/06/26 01:29:03;;;;;;;7.50;4.80;;;;;;;-144.99;60.12;52225.94;5071725;28;20224;-59
2021/06/26 01:31:30;;;;;;;7.10;6.33;;;;;;;-144.99;60.00;52170.91;5075230;28;20223;-59
2021/06/26 01:33:56;;;;;;;6.80;4.77;;;;;;;-144.99;60.48;52250.38;5070382;28;20211;-59
2021/06/26 01:36:23;;;;;;;6.37;5.07;;;;;;;-144.99;60.61;52205.53;5070218;28;20213;-59
2021/06/26 01:38:55;;;;;;;6.77;4.43;;;;;;;-144.99;60.81;52215.75;5070410;28;20236;-59
2021/06/26 01:41:24;;;;;;;6.27;4.27;;;;;;;-144.99;60.85;52227.97;5070246;28;20212;-58
2021/06/26 01:43:50;;;;;;;5.87;4.90;;;;;;;-144.99;61.14;52234.09;5082054;28;20224;-58
2021/06/26 01:46:17;;;;;;;6.70;5.87;;;;;;;-144.99;61.35;52219.81;5071153;28;20295;-58
2021/06/26 01:48:43;;;;;;;7.60;5.27;;;;;;;-144.99;61.34;52232.03;5070953;28;20242;-58
2021/06/26 01:51:10;;;;;;;6.50;4.97;;;;;;;-144.99;61.46;52209.63;5069655;28;20585;-59
2021/06/26 01:53:38;;;;;;;5.90;4.63;;;;;;;-144.99;61.29;52201.47;5082613;28;20204;-58
2021/06/26 01:56:06;;;;;;;6.83;5.33;;;;;;;-144.99;61.54;52211.66;5079073;28;20704;-59
2021/06/26 01:58:34;;;;;;;7.13;5.23;;;;;;;-144.99;61.49;52232.03;5069999;28;20240;-58
2021/06/26 02:01:02;;;;;;;5.97;4.53;;;;;;;-144.99;61.43;52195.34;5069716;28;20216;-58
2021/06/26 02:03:28;;;;;;;6.97;5.07;;;;;;;-144.99;61.85;52207.59;5069898;28;20233;-59
2021/06/26 02:05:55;;;;;;;6.63;4.57;;;;;;;-144.99;61.67;52203.50;5069513;28;20223;-59
2021/06/26 02:08:22;;;;;;;7.57;5.40;;;;;;;-144.99;61.69;52223.88;5069757;28;20236;-59
2021/06/26 02:10:48;;;;;;;7.93;5.73;;;;;;;-144.99;62.14;52227.97;5069540;28;20224;-58
2021/06/26 02:13:15;;;;;;;6.70;4.30;;;;;;;-144.99;62.38;52219.81;5081640;28;20567;-58
2021/06/26 02:15:43;;;;;;;8.43;4.93;;;;;;;-144.99;62.47;52219.81;5076869;28;20681;-58
2021/06/26 02:18:09;;;;;;;7.77;5.60;;;;;;;-144.99;62.58;52236.13;5072929;28;20209;-58
2021/06/26 02:20:36;;;;;;;7.13;4.50;;;;;;;-144.99;62.71;52207.59;5072762;28;20208;-58
2021/06/26 02:23:02;;;;;;;7.17;5.17;;;;;;;-144.99;62.92;52211.66;5088058;28;20228;-58
2021/06/26 02:25:29;;;;;;;9.07;5.33;;;;;;;-144.99;63.06;52199.44;5069593;28;20216;-58
2021/06/26 02:27:56;;;;;;;5.43;4.90;;;;;;;-144.99;63.38;52213.69;5069907;28;20208;-59
2021/06/26 02:30:23;;;;;;;7.40;4.90;;;;;;;-144.99;63.54;52195.34;5074637;28;20276;-58
2021/06/26 02:32:50;;;;;;;8.50;4.73;;;;;;;-144.99;63.32;52227.97;5070193;28;20207;-58
2021/06/26 02:35:17;;;;;;;7.57;5.23;;;;;;;-144.99;63.36;52211.66;5080988;28;20630;-59
2021/06/26 02:37:44;;;;;;;6.60;5.17;;;;;;;-144.99;63.62;52148.47;5084659;28;20208;-59
2021/06/26 02:40:12;;;;;;;7.90;5.07;;;;;;;-144.99;64.05;52232.03;5088829;28;20232;-59
2021/06/26 02:42:38;;;;;;;5.53;3.73;;;;;;;-144.99;64.85;52248.34;5089570;28;20217;-59
2021/06/26 02:45:06;;;;;;;9.43;5.80;;;;;;;-144.99;65.37;52187.19;5089459;28;20212;-59
2021/06/26 02:47:33;;;;;;;6.37;4.73;;;;;;;-144.99;65.57;52195.34;5091274;28;20227;-60
2021/06/26 02:50:01;;;;;;;5.97;4.30;;;;;;;-144.99;65.70;52215.75;5093392;28;20631;-59
2021/06/26 02:52:28;;;;;;;6.80;4.57;;;;;;;-144.99;65.72;52211.66;5088730;28;20668;-59
2021/06/26 02:54:54;;;;;;;10.07;3.77;;;;;;;-144.99;66.30;52187.19;5088613;28;20196;-59
2021/06/26 02:57:21;;;;;;;5.43;4.33;;;;;;;-144.99;66.63;52213.69;5076001;28;20217;-59
2021/06/26 02:59:48;;;;;;;6.30;4.07;;;;;;;-144.99;66.49;52191.28;5072704;28;20768;-59
2021/06/26 03:02:15;;;;;;;6.13;4.67;;;;;;;-144.99;66.72;52195.34;5072913;28;20431;-59
2021/06/26 03:04:42;;;;;;;6.67;4.37;;;;;;;-144.99;66.72;52207.59;5072837;28;20228;-60
2021/06/26 03:07:10;;;;;;;5.40;3.87;;;;;;;-144.99;66.96;52240.19;5072769;28;20220;-59
2021/06/26 03:09:37;;;;;;;7.77;5.80;;;;;;;-144.99;67.13;52197.41;5072801;28;20404;-60
2021/06/26 03:12:04;;;;;;;5.97;4.23;;;;;;;-144.99;67.23;52207.59;5075044;28;20212;-59
2021/06/26 03:14:34;;;;;;;6.83;5.60;;;;;;;-144.99;67.13;52240.19;5085559;28;20207;-59
2021/06/26 03:17:00;;;;;;;5.77;4.30;;;;;;;-144.99;67.38;52232.03;5079628;28;20216;-59
2021/06/26 03:19:27;;;;;;;5.43;4.20;;;;;;;-144.99;67.46;52191.28;5072831;28;20233;-58
2021/06/26 03:21:53;;;;;;;5.30;4.37;;;;;;;-144.99;67.69;52217.78;5084641;28;20682;-59
2021/06/26 03:24:21;;;;;;;5.80;4.27;;;;;;;-144.99;67.80;52209.63;5080120;28;20227;-60
2021/06/26 03:26:48;;;;;;;5.90;4.47;;;;;;;-144.99;67.73;52203.50;5072406;28;20212;-59
2021/06/26 03:29:14;;;;;;;7.43;4.70;;;;;;;-144.99;68.11;52215.75;5075387;28;21230;-59
2021/06/26 03:31:41;;;;;;;6.17;4.50;;;;;;;-144.99;68.30;52199.44;5074720;28;20616;-59
2021/06/26 03:34:07;;;;;;;5.67;4.03;;;;;;;-144.99;68.75;52215.75;5072492;28;20208;-58
2021/06/26 03:36:34;;;;;;;7.83;4.40;;;;;;;-144.99;69.04;52187.19;5072388;28;20223;-60
2021/06/26 03:39:01;;;;;;;7.03;4.57;;;;;;;-144.99;69.03;52219.81;5072610;28;20268;-58
2021/06/26 03:41:29;;;;;;;8.30;4.57;;;;;;;-144.99;69.25;52219.81;5072029;28;20686;-60
2021/06/26 03:43:58;;;;;;;5.50;4.77;;;;;;;-144.99;69.43;52230.00;5072097;28;20260;-59
2021/06/26 03:46:24;;;;;;;7.53;4.97;;;;;;;-144.99;69.18;52230.00;5072136;28;20204;-59
2021/06/26 03:48:51;;;;;;;5.87;4.67;;;;;;;-144.99;69.17;52211.66;5071971;28;20236;-59
2021/06/26 03:51:18;;;;;;;5.90;4.93;;;;;;;-144.99;69.24;52203.50;5071858;28;20212;-59
2021/06/26 03:53:46;;;;;;;5.63;4.47;;;;;;;-144.99;69.54;52191.28;5090503;28;20196;-59
2021/06/26 03:56:12;;;;;;;5.93;5.10;;;;;;;-144.99;69.52;52183.13;5081708;28;20262;-59
2021/06/26 03:58:41;;;;;;;6.80;5.50;;;;;;;-144.99;68.93;52199.44;5070824;28;20263;-59
2021/06/26 04:01:08;;;;;;;6.00;5.13;;;;;;;-144.99;68.66;52183.13;5071899;28;20208;-59
2021/06/26 04:03:34;;;;;;;7.50;5.57;;;;;;;-144.99;69.00;52185.16;5071865;28;20238;-59
2021/06/26 04:06:01;;;;;;;7.33;6.00;;;;;;;-144.99;69.05;52183.13;5071630;28;20227;-59
2021/06/26 04:08:27;;;;;;;7.43;5.83;;;;;;;-144.99;69.20;52219.81;5072061;28;20237;-59
2021/06/26 04:10:54;;;;;;;7.33;5.37;;;;;;;-144.99;69.36;52195.34;5071440;28;20205;-59
2021/06/26 04:13:20;;;;;;;9.47;6.17;;;;;;;-144.99;69.36;52211.66;5085174;28;20571;-59
2021/06/26 04:15:48;;;;;;;7.43;5.43;;;;;;;-144.99;69.09;52189.25;5078255;28;20228;-59
2021/06/26 04:18:15;;;;;;;10.27;6.43;;;;;;;-144.99;69.27;52203.50;5075039;28;20235;-59
2021/06/26 04:20:42;;;;;;;13.50;6.77;;;;;;;-144.99;69.29;52183.13;5076474;28;20199;-59
2021/06/26 04:23:09;;;;;;;8.20;5.97;;;;;;;-144.99;68.92;52205.53;5084226;28;20223;-59
2021/06/26 04:25:35;;;;;;;7.10;6.33;;;;;;;-144.99;68.96;52211.66;5071967;28;20231;-58
2021/06/26 04:28:06;;;;;;;7.57;5.73;;;;;;;-144.99;68.95;52193.31;5071726;28;20392;-58
2021/06/26 04:30:33;;;;;;;12.10;7.53;;;;;;;-144.99;68.91;52221.84;5076151;28;20209;-59
2021/06/26 04:33:02;;;;;;;7.63;5.33;;;;;;;-144.99;68.91;52203.50;5071259;28;20685;-59
2021/06/26 04:35:28;;;;;;;8.87;7.33;;;;;;;-144.99;68.95;52195.34;5071465;28;20716;-60
2021/06/26 04:37:56;;;;;;;7.47;5.97;;;;;;;-144.99;68.79;52193.31;5071315;28;20227;-59
2021/06/26 04:40:22;;;;;;;7.90;6.30;;;;;;;-144.99;68.54;52134.22;5071080;28;20602;-59
2021/06/26 04:42:49;;;;;;;7.47;6.27;;;;;;;-144.99;68.39;52174.97;5071407;28;20299;-58
2021/06/26 04:45:16;;;;;;;8.60;6.77;;;;;;;-144.99;68.48;52195.34;5071600;28;20224;-59
2021/06/26 04:47:43;;;;;;;8.57;7.00;;;;;;;-144.99;68.41;52170.91;5083086;28;20205;-59
2021/06/26 04:50:13;;;;;;;9.40;7.53;;;;;;;-144.99;68.36;52158.66;5071861;28;20247;-59
2021/06/26 04:52:41;;;;;;;8.93;7.70;;;;;;;-144.99;68.39;52185.16;5075576;28;20204;-59
2021/06/26 04:55:09;;;;;;;7.70;6.77;;;;;;;-144.99;68.17;52197.41;5087551;28;20204;-59
2021/06/26 04:57:35;;;;;;;8.73;6.47;;;;;;;-144.99;68.00;52179.06;5072330;28;20675;-58
2021/06/26 05:00:03;;;;;;;10.63;9.03;;;;;;;-144.99;68.05;52146.44;5070528;28;20233;-59
2021/06/26 05:02:29;;;;;;;10.30;6.97;;;;;;;-144.99;67.79;52185.16;5070957;28;20666;-58
2021/06/26 05:04:56;;;;;;;8.90;6.63;;;;;;;-144.99;67.77;52179.06;5071573;28;20224;-59
2021/06/26 05:07:24;;;;;;;8.10;6.87;;;;;;;-144.99;67.57;52179.06;5071196;28;20242;-58
2021/06/26 05:09:50;;;;;;;10.53;6.20;;;;;;;-144.99;67.37;52121.97;5070389;28;20236;-59
2021/06/26 05:12:17;;;;;;;17.13;8.23;;;;;;;-144.99;67.25;52179.06;5074833;28;20200;-59
2021/06/26 05:14:43;;;;;;;10.40;7.50;;;;;;;-144.99;66.99;52162.75;5083996;28;20196;-59
2021/06/26 05:17:10;;;;;;;7.67;6.50;;;;;;;-144.99;66.91;52191.28;5075925;28;20299;-58
2021/06/26 05:19:37;;;;;;;9.37;7.63;;;;;;;-144.99;66.50;52154.59;5070241;28;20229;-58
2021/06/26 05:22:04;;;;;;;7.87;6.63;;;;;;;-144.99;65.75;52185.16;5080757;28;20209;-58
2021/06/26 05:24:32;;;;;;;10.47;7.40;;;;;;;-144.99;65.01;52148.47;5076724;28;20229;-59
2021/06/26 05:26:58;;;;;;;10.53;7.07;;;;;;;-144.99;64.30;52174.97;5070635;28;20300;-59
2021/06/26 05:29:25;;;;;;;11.00;7.23;;;;;;;-144.99;63.56;52126.06;5074175;28;20790;-59
2021/06/26 05:31:52;;;;;;;9.87;7.37;;;;;;;-144.99;63.09;52146.44;5070725;28;20584;-58
2021/06/26 05:34:18;;;;;;;8.53;7.60;;;;;;;-144.99;62.96;52154.59;5083331;28;20208;-58
2021/06/26 05:36:45;;;;;;;8.83;7.30;;;;;;;-144.99;62.95;52142.38;5070305;28;20231;-59
2021/06/26 05:39:11;;;;;;;9.33;6.33;;;;;;;-144.99;62.92;52138.28;5069194;28;20245;-59
2021/06/26 05:41:39;;;;;;;8.97;6.77;;;;;;;-144.99;62.49;52128.09;5070528;28;20222;-59
2021/06/26 05:44:06;;;;;;;8.17;6.63;;;;;;;-144.99;62.18;52138.28;5069660;28;20238;-59
2021/06/26 05:46:33;;;;;;;8.53;7.63;;;;;;;-144.99;61.33;52142.38;5069528;28;20205;-59
2021/06/26 05:48:59;;;;;;;8.27;6.20;;;;;;;-144.99;60.10;52130.13;5069536;28;20237;-59
2021/06/26 05:51:26;;;;;;;12.50;7.70;;;;;;;-144.99;59.34;52119.94;5069382;28;20224;-61
2021/06/26 05:53:53;;;;;;;6.23;5.13;;;;;;;-144.99;59.24;52162.75;5087663;28;20214;-60
2021/06/26 05:56:19;;;;;;;7.70;5.57;;;;;;;-144.99;59.52;52138.28;5078553;28;20207;-58
2021/06/26 05:58:47;;;;;;;9.50;6.63;;;;;;;-144.99;59.67;52142.38;5069909;28;20233;-59
2021/06/26 06:01:14;;;;;;;8.20;5.00;;;;;;;-144.99;59.79;52146.44;5069792;28;20217;-59
2021/06/26 06:03:40;;;;;;;9.90;6.53;;;;;;;-144.99;60.08;52138.28;5069961;28;20234;-58
2021/06/26 06:06:07;;;;;;;9.33;6.00;;;;;;;-144.99;60.12;52126.06;5069150;28;20247;-59
2021/06/26 06:08:34;;;;;;;8.70;7.40;;;;;;;-144.99;59.93;52117.91;5069507;28;20720;-59
2021/06/26 06:11:01;;;;;;;9.63;5.73;;;;;;;-144.99;59.79;52126.06;5069772;28;20219;-60
2021/06/26 06:13:27;;;;;;;8.97;8.07;;;;;;;-144.99;59.54;52126.06;5083061;28;20210;-59
2021/06/26 06:15:55;;;;;;;6.47;5.63;;;;;;;-144.99;59.20;52146.44;5076469;28;20442;-59
2021/06/26 06:18:22;;;;;;;6.97;5.57;;;;;;;-144.99;58.97;52101.59;5072975;28;20254;-59
2021/06/26 06:20:49;;;;;;;9.30;7.43;;;;;;;-144.99;58.95;52166.81;5076005;28;20206;-59
2021/06/26 06:23:16;;;;;;;9.93;7.27;;;;;;;-144.99;58.76;52170.91;5081596;28;20367;-60
2021/06/26 06:25:43;;;;;;;7.97;5.53;;;;;;;-144.99;58.70;52134.22;5069261;28;20250;-59
2021/06/26 06:28:10;;;;;;;6.43;5.03;;;;;;;-144.99;58.34;52146.44;5069694;28;20543;-59
2021/06/26 06:30:36;;;;;;;7.07;3.97;;;;;;;-144.99;58.11;52138.28;5074082;28;20661;-60
2021/06/26 06:33:06;;;;;;;7.63;5.50;;;;;;;-144.99;58.14;52109.75;5069106;28;20211;-59
2021/06/26 06:35:33;;;;;;;7.27;5.20;;;;;;;-144.99;57.87;52113.84;5068857;28;20211;-59
2021/06/26 06:38:01;;;;;;;6.00;4.30;;;;;;;-144.99;57.83;52109.75;5069542;28;20212;-60
2021/06/26 06:40:28;;;;;;;6.77;5.33;;;;;;;-144.99;56.50;52117.91;5069082;28;20208;-59
2021/06/26 06:42:54;;;;;;;6.93;5.73;;;;;;;-144.99;56.16;52111.78;5069651;28;20243;-60
2021/06/26 06:45:21;;;;;;;7.63;4.93;;;;;;;-144.99;55.47;52099.56;5068709;28;20255;-59
2021/06/26 06:47:48;;;;;;;6.73;4.67;;;;;;;-144.99;54.96;52121.97;5069118;28;20298;-59
2021/06/26 06:50:15;;;;;;;6.17;4.40;;;;;;;-144.99;55.10;52113.84;5068696;28;20855;-59
2021/06/26 06:52:42;;;;;;;8.37;6.13;;;;;;;-144.99;54.22;52093.44;5081135;28;20212;-59
2021/06/26 06:55:10;;;;;;;8.40;5.87;;;;;;;-144.99;53.37;52077.16;5085234;28;20204;-60
2021/06/26 06:57:36;;;;;;;6.87;4.37;;;;;;;-144.99;52.89;52085.31;5070773;28;20458;-59
2021/06/26 07:00:06;;;;;;;9.97;6.20;;;;;;;-144.99;52.00;52073.06;5069233;28;20236;-59
2021/06/26 07:02:32;;;;;;;8.17;5.57;;;;;;;-144.99;50.76;52073.06;5068997;28;20612;-59
2021/06/26 07:04:59;;;;;;;6.53;5.37;;;;;;;-144.99;50.44;52099.56;5069144;28;20237;-60
2021/06/26 07:07:27;;;;;;;10.07;5.67;;;;;;;-144.99;50.50;52069.00;5069024;28;20221;-60
2021/06/26 07:09:53;;;;;;;7.33;4.77;;;;;;;-144.99;50.88;52113.84;5068821;28;20237;-59
2021/06/26 07:12:20;;;;;;;7.47;3.97;;;;;;;-144.99;50.30;52052.69;5075731;28;20568;-59
2021/06/26 07:14:47;;;;;;;6.97;5.57;;;;;;;-144.99;49.66;52101.59;5082208;28;20283;-60
2021/06/26 07:17:13;;;;;;;8.67;5.83;;;;;;;-144.99;49.62;52119.94;5073827;28;20211;-59
2021/06/26 07:19:40;;;;;;;9.33;6.23;;;;;;;-144.99;49.35;52064.91;5069073;28;20228;-59
2021/06/26 07:22:06;;;;;;;9.13;6.63;;;;;;;-144.99;49.18;52124.03;5079455;28;20223;-59
2021/06/26 07:24:34;;;;;;;9.60;6.60;;;;;;;-144.99;49.11;52117.91;5075943;28;20266;-59
2021/06/26 07:27:01;;;;;;;13.50;6.40;;;;;;;-144.99;48.98;52105.69;5069454;28;20219;-59
2021/06/26 07:29:27;;;;;;;10.77;6.83;;;;;;;-144.99;49.49;52085.31;5073448;28;20223;-59
2021/06/26 07:31:54;;;;;;;8.73;6.67;;;;;;;-144.99;48.81;52077.16;5068655;28;20712;-59
2021/06/26 07:34:20;;;;;;;12.33;9.20;;;;;;;-144.99;48.53;52071.03;5071800;28;20684;-59
2021/06/26 07:36:47;;;;;;;9.63;7.37;;;;;;;-144.99;48.55;52105.69;5072104;28;20693;-59
2021/06/26 07:39:14;;;;;;;8.43;6.93;;;;;;;-144.99;48.53;52095.50;5071606;28;20242;-59
2021/06/26 07:41:41;;;;;;;10.10;7.20;;;;;;;-144.99;48.71;52111.78;5072309;28;20700;-59
2021/06/26 07:44:08;;;;;;;8.87;6.67;;;;;;;-144.99;48.97;52117.91;5071899;28;20705;-59
2021/06/26 07:46:35;;;;;;;13.20;7.73;;;;;;;-144.99;48.16;52089.38;5072447;28;20235;-60
2021/06/26 07:49:01;;;;;;;10.47;7.30;;;;;;;-144.99;48.27;52085.31;5071962;28;20318;-59
2021/06/26 07:51:28;;;;;;;13.23;8.10;;;;;;;-144.99;48.44;52089.38;5072510;28;20213;-59
2021/06/26 07:53:54;;;;;;;11.70;7.07;;;;;;;-144.99;48.28;52101.59;5092149;28;20593;-59
2021/06/26 07:56:21;;;;;;;13.40;8.17;;;;;;;-144.99;47.60;52101.59;5083358;28;20582;-58
2021/06/26 07:58:49;;;;;;;11.73;8.80;;;;;;;-144.99;48.22;52040.47;5071552;28;20236;-58
2021/06/26 08:01:16;;;;;;;10.87;8.97;;;;;;;-144.99;47.92;52077.16;5071950;28;20233;-59
2021/06/26 08:03:44;;;;;;;11.97;7.93;;;;;;;-144.99;47.92;52066.97;5072449;28;20217;-59
2021/06/26 08:06:10;;;;;;;14.50;11.10;;;;;;;-144.99;47.38;52085.31;5071090;28;20287;-59
2021/06/26 08:08:37;;;;;;;10.73;9.43;;;;;;;-144.99;46.82;52093.44;5071975;28;20240;-59
2021/06/26 08:11:03;;;;;;;15.80;8.93;;;;;;;-144.99;45.83;52071.03;5071564;28;20217;-59
2021/06/26 08:13:31;;;;;;;12.93;9.10;;;;;;;-144.99;46.06;52036.38;5085288;28;20208;-59
2021/06/26 08:15:59;;;;;;;12.13;10.00;;;;;;;-144.99;46.58;52040.47;5078457;28;20212;-58
2021/06/26 08:18:25;;;;;;;11.10;9.63;;;;;;;-144.99;46.27;52040.47;5075147;28;20234;-59
2021/06/26 08:20:52;;;;;;;14.83;9.23;;;;;;;-144.99;46.28;52034.34;5078925;28;20209;-60
2021/06/26 08:23:18;;;;;;;12.93;9.43;;;;;;;-144.99;46.00;52016.00;5083013;28;20213;-59
2021/06/26 08:25:45;;;;;;;13.40;9.43;;;;;;;-144.99;45.33;51960.97;5071659;28;20242;-59
2021/06/26 08:28:11;;;;;;;12.03;9.43;;;;;;;-144.99;45.17;52003.78;5071393;28;20591;-59
2021/06/26 08:30:38;;;;;;;12.37;10.00;;;;;;;-144.99;45.13;51995.63;5076239;28;20213;-60
2021/06/26 08:33:06;;;;;;;10.13;8.43;;;;;;;-144.99;44.87;51995.63;5071180;28;20219;-60
2021/06/26 08:35:32;;;;;;;12.90;8.83;;;;;;;-144.99;44.77;51969.13;5071383;28;20232;-60
2021/06/26 08:37:59;;;;;;;10.90;9.70;;;;;;;-144.99;45.04;52020.09;5070767;28;20694;-60
2021/06/26 08:40:26;;;;;;;11.23;8.63;;;;;;;-144.99;44.47;52064.91;5071087;28;20234;-59
2021/06/26 08:42:55;;;;;;;9.27;8.00;;;;;;;-144.99;44.66;52040.47;5071253;28;20206;-59
2021/06/26 08:45:22;;;;;;;10.03;8.47;;;;;;;-144.99;45.21;52007.84;5070363;28;20227;-59
2021/06/26 08:47:50;;;;;;;11.37;9.73;;;;;;;-144.99;45.30;52034.34;5071132;28;20223;-59
2021/06/26 08:50:20;;;;;;;10.13;7.43;;;;;;;-144.99;45.50;52020.09;5070652;28;20242;-59
2021/06/26 08:52:46;;;;;;;12.53;10.20;;;;;;;-144.99;44.90;52034.34;5081201;28;20206;-58
2021/06/26 08:55:15;;;;;;;11.50;9.67;;;;;;;-144.99;45.15;52040.47;5086498;28;20677;-59
2021/06/26 08:57:43;;;;;;;11.67;8.60;;;;;;;-144.99;45.34;52040.47;5071172;28;20231;-62
2021/06/26 09:00:12;;;;;;;13.97;11.03;;;;;;;-144.99;45.59;52024.16;5070901;28;20238;-60
2021/06/26 09:02:39;;;;;;;13.00;11.27;;;;;;;-144.99;45.76;52009.91;5071164;28;20268;-60
2021/06/26 09:05:07;;;;;;;16.63;9.30;;;;;;;-144.99;46.12;52075.09;5070784;28;20233;-61
2021/06/26 09:07:37;;;;;;;11.33;8.77;;;;;;;-144.99;46.57;52020.09;5070500;28;20219;-60
2021/06/26 09:10:14;;;;;;;10.70;7.93;;;;;;;-144.99;46.47;52060.84;5070119;28;20238;-60
2021/06/26 09:12:41;;;;;;;11.00;8.73;;;;;;;-144.99;46.09;52044.53;5077805;28;20210;-60
2021/06/26 09:15:10;;;;;;;12.53;9.57;;;;;;;-144.99;45.71;52040.47;5083760;28;20206;-64
2021/06/26 09:17:37;;;;;;;13.30;7.33;;;;;;;-144.99;46.37;52060.84;5083006;28;20240;-66
2021/06/26 09:20:08;;;;;;;17.73;12.67;;;;;;;-144.99;46.77;52069.00;5077503;28;20478;-70
2021/06/26 09:22:40;;;;;;;15.30;10.87;;;;;;;-144.99;46.97;52077.16;5088314;28;20224;-67
2021/06/26 09:25:31;;;;;;;9.03;7.50;;;;;;;-144.99;47.04;52052.69;5073693;28;20225;-69
2021/06/26 09:27:59;;;;;;;7.93;6.97;;;;;;;-144.99;47.20;52077.16;5070361;28;20341;-70
2021/06/26 09:30:38;;;;;;;12.63;8.07;;;;;;;-144.99;46.93;52056.78;4373105;28;10000716;-71
2021/06/26 09:33:12;;;;;;;14.20;7.53;;;;;;;-144.99;47.38;52064.91;5083003;28;20696;-70
2021/06/26 09:35:40;;;;;;;11.40;7.53;;;;;;;-144.99;47.29;52032.31;5075984;28;20675;-68
2021/06/26 09:38:09;;;;;;;8.43;7.50;;;;;;;-144.99;47.21;52044.53;5067146;28;20727;-68
2021/06/26 09:40:38;;;;;;;10.07;7.23;;;;;;;-144.99;47.06;52052.69;5066312;28;20213;-69
2021/06/26 09:43:05;;;;;;;11.60;8.20;;;;;;;-144.99;47.28;52073.06;5067552;28;20718;-61
2021/06/26 09:45:31;;;;;;;10.47;9.00;;;;;;;-144.99;46.97;52069.00;5067359;28;20228;-61
2021/06/26 09:48:04;;;;;;;8.97;8.07;;;;;;;-144.99;47.35;52081.22;5067258;28;20241;-61
2021/06/26 09:50:31;;;;;;;14.93;9.87;;;;;;;-144.99;47.27;52077.16;5067356;28;20218;-63
2021/06/26 09:53:00;;;;;;;12.13;8.77;;;;;;;-144.99;47.41;52056.78;5079530;28;20657;-68
2021/06/26 09:55:31;;;;;;;10.63;8.03;;;;;;;-144.99;47.15;52044.53;5082139;28;20271;-68
2021/06/26 09:57:59;;;;;;;11.43;8.20;;;;;;;-144.99;47.22;52040.47;5067389;28;20222;-71
2021/06/26 10:00:27;;;;;;;10.57;7.43;;;;;;;-144.99;46.73;52020.09;5066758;28;20701;-69
2021/06/26 10:02:54;;;;;;;10.77;9.33;;;;;;;-144.99;46.79;52064.91;5066911;28;20722;-69
2021/06/26 10:05:21;;;;;;;9.07;8.03;;;;;;;-144.99;46.27;52022.13;5072267;28;20230;-70
2021/06/26 10:07:51;;;;;;;11.73;7.90;;;;;;;-144.99;45.96;52028.22;5087309;28;20216;-70
2021/06/26 10:10:20;;;;;;;12.70;8.50;;;;;;;-144.99;45.79;51967.09;5081140;28;20234;-68
2021/06/26 10:12:48;;;;;;;12.50;8.10;;;;;;;-144.99;45.50;51983.41;5074026;28;20296;-70
2021/06/26 10:15:16;;;;;;;11.30;9.37;;;;;;;-144.99;44.95;52020.09;5073330;28;20206;-70
2021/06/26 10:17:44;;;;;;;15.90;10.17;;;;;;;-144.99;44.23;51987.47;5080087;28;20207;-70
2021/06/26 10:20:13;;;;;;;10.00;8.40;;;;;;;-144.99;44.63;52020.09;5075018;28;20228;-70
2021/06/26 10:22:41;;;;;;;9.40;8.40;;;;;;;-144.99;44.44;52040.47;5077477;28;20674;-70
2021/06/26 10:25:11;;;;;;;10.40;8.87;;;;;;;-144.99;44.81;51950.78;5084790;28;20232;-69
2021/06/26 10:27:38;;;;;;;11.90;9.63;;;;;;;-144.99;43.84;51993.59;5083163;28;20223;-70
2021/06/26 10:30:18;;;;;;;11.20;8.40;;;;;;;-144.99;44.50;52005.81;5085630;28;20227;-71
2021/06/26 10:32:56;;;;;;;13.17;9.10;;;;;;;-144.99;44.68;51991.56;5084997;28;20215;-71
2021/06/26 10:35:25;;;;;;;14.73;9.37;;;;;;;-144.99;44.90;51987.47;5073662;28;20627;-71
2021/06/26 10:38:02;;;;;;;10.53;8.57;;;;;;;-144.99;43.75;52003.78;5080167;28;20218;-70
2021/06/26 10:40:37;;;;;;;8.40;6.17;;;;;;;-144.99;43.63;51985.44;5084012;28;20206;-70
2021/06/26 10:43:17;;;;;;;10.47;8.40;;;;;;;-144.99;43.15;51983.41;5082184;28;20209;-70
2021/06/26 10:45:45;;;;;;;13.87;8.80;;;;;;;-144.99;43.15;51914.09;5072166;28;22218;-70
2021/06/26 10:48:16;;;;;;;15.33;10.13;;;;;;;-144.99;42.89;51926.34;5082114;28;20207;-70
2021/06/26 10:50:49;;;;;;;8.20;7.20;;;;;;;-144.99;43.00;51922.25;5085096;28;20199;-70
2021/06/26 10:53:27;;;;;;;11.87;9.07;;;;;;;-144.99;42.52;51918.19;5083311;28;20676;-63
2021/06/26 10:56:03;;;;;;;11.43;8.07;;;;;;;-144.99;41.92;51877.44;5080695;28;20204;-64
2021/06/26 10:58:30;;;;;;;8.57;7.73;;;;;;;-144.99;42.09;51950.78;5080900;28;20699;-64
2021/06/26 11:00:59;;;;;;;8.67;6.90;;;;;;;-144.99;41.85;51901.88;5081967;28;20213;-64
2021/06/26 11:03:30;;;;;;;14.93;9.40;;;;;;;-144.99;41.19;51861.13;5088650;28;20202;-64
2021/06/26 11:05:58;;;;;;;11.23;8.93;;;;;;;-144.99;40.45;51905.97;5079285;28;20230;-64
2021/06/26 11:08:26;;;;;;;12.03;9.23;;;;;;;-144.99;40.31;51885.56;5068634;28;20240;-64
2021/06/26 11:10:55;;;;;;;11.47;8.23;;;;;;;-144.99;40.31;51844.81;5088098;28;20214;-64
2021/06/26 11:13:23;;;;;;;12.43;9.03;;;;;;;-144.99;40.25;51881.50;5074897;28;20834;-64
2021/06/26 11:15:50;;;;;;;18.63;11.27;;;;;;;-144.99;40.07;51865.19;5068108;28;20309;-64